createdAt,value
2023-01-19T00:01:03.026Z,-2.88
2023-01-19T00:03:31.560Z,-2.88
2023-01-19T00:05:59.824Z,-2.90
2023-01-19T00:08:28.230Z,-2.89
2023-01-19T00:10:58.844Z,-2.82
2023-01-19T00:13:29.319Z,-2.85
2023-01-19T00:15:57.911Z,-2.64
2023-01-19T00:18:28.846Z,-2.57
2023-01-19T00:20:58.747Z,-2.63
2023-01-19T00:23:29.708Z,-2.67
2023-01-19T00:25:58.571Z,-2.60
2023-01-19T00:28:28.177Z,-2.58
2023-01-19T00:30:56.836Z,-2.49
2023-01-19T00:33:24.931Z,-2.49
2023-01-19T00:35:54.942Z,-2.57
2023-01-19T00:38:23.491Z,-2.48
2023-01-19T00:40:51.906Z,-2.54
2023-01-19T00:43:19.185Z,-2.60
2023-01-19T00:45:49.637Z,-2.61
2023-01-19T00:48:17.740Z,-2.58
2023-01-19T00:50:46.194Z,-2.55
2023-01-19T00:53:14.665Z,-2.54
2023-01-19T00:55:43.032Z,-2.53
2023-01-19T00:58:11.624Z,-2.40
2023-01-19T01:00:39.828Z,-2.32
2023-01-19T01:03:09.677Z,-2.29
2023-01-19T01:05:41.761Z,-2.20
2023-01-19T01:08:10.102Z,-2.04
2023-01-19T01:10:38.315Z,-1.96
2023-01-19T01:13:20.247Z,-1.91
2023-01-19T01:15:50.985Z,-1.87
2023-01-19T01:18:21.176Z,-1.81
2023-01-19T01:20:50.741Z,-1.75
2023-01-19T01:23:22.998Z,-1.69
2023-01-19T01:25:51.477Z,-1.67
2023-01-19T01:28:19.599Z,-1.64
2023-01-19T01:30:48.343Z,-1.62
2023-01-19T01:33:40.038Z,-1.61
2023-01-19T01:36:12.292Z,-1.52
2023-01-19T01:38:41.474Z,-1.50
2023-01-19T01:41:10.521Z,-1.59
2023-01-19T01:43:45.540Z,-1.62
2023-01-19T01:46:17.890Z,-1.66
2023-01-19T01:48:50.837Z,-1.69
2023-01-19T01:51:28.155Z,-1.75
2023-01-19T01:54:07.715Z,-1.75
2023-01-19T01:56:37.266Z,-1.77
2023-01-19T01:59:08.789Z,-1.84
2023-01-19T02:01:55.275Z,-1.80
2023-01-19T02:04:24.907Z,-1.88
2023-01-19T02:07:12.481Z,-1.93
2023-01-19T02:09:58.560Z,-1.94
2023-01-19T02:12:44.571Z,-1.88
2023-01-19T02:15:18.364Z,-1.99
2023-01-19T02:17:48.781Z,-2.00
2023-01-19T02:20:17.990Z,-1.98
2023-01-19T02:22:50.437Z,-1.91
2023-01-19T02:25:21.886Z,-2.01
2023-01-19T02:27:51.495Z,-1.99
2023-01-19T02:30:19.914Z,-1.99
2023-01-19T02:32:48.340Z,-2.06
2023-01-19T02:35:17.184Z,-1.89
2023-01-19T02:37:46.236Z,-1.89
2023-01-19T02:40:17.371Z,-1.94
2023-01-19T02:42:50.735Z,-1.93
2023-01-19T02:45:22.773Z,-1.96
2023-01-19T02:47:53.506Z,-1.95
2023-01-19T02:50:46.173Z,-1.87
2023-01-19T02:53:32.879Z,-1.87
2023-01-19T02:56:09.141Z,-1.83
2023-01-19T02:58:48.571Z,-1.72
2023-01-19T03:01:27.410Z,-1.64
2023-01-19T03:03:59.605Z,-1.55
2023-01-19T03:06:37.582Z,-1.48
2023-01-19T03:09:14.780Z,-1.44
2023-01-19T03:11:52.207Z,-1.33
2023-01-19T03:14:25.763Z,-1.34
2023-01-19T03:16:57.851Z,-1.26
2023-01-19T03:19:35.926Z,-1.22
2023-01-19T03:22:10.348Z,-1.19
2023-01-19T03:24:43.255Z,-1.13
2023-01-19T03:27:15.702Z,-1.12
2023-01-19T03:29:51.899Z,-1.13
2023-01-19T03:32:24.756Z,-1.04
2023-01-19T03:34:56.223Z,-0.99
2023-01-19T03:37:29.751Z,-1.02
2023-01-19T03:39:58.241Z,-1.06
2023-01-19T03:42:31.734Z,-1.06
2023-01-19T03:45:02.744Z,-1.13
2023-01-19T03:47:31.008Z,-1.11
2023-01-19T03:49:59.667Z,-1.15
2023-01-19T03:52:30.160Z,-1.16
2023-01-19T03:54:58.564Z,-1.07
2023-01-19T03:57:27.104Z,-1.12
2023-01-19T03:59:55.999Z,-1.12
2023-01-19T04:02:25.999Z,-1.11
2023-01-19T04:04:54.332Z,-1.05
2023-01-19T04:07:22.944Z,-1.09
2023-01-19T04:09:51.044Z,-1.03
2023-01-19T04:12:19.235Z,-1.05
2023-01-19T04:14:48.640Z,-1.07
2023-01-19T04:17:16.960Z,-1.13
2023-01-19T04:19:46.514Z,-1.09
2023-01-19T04:22:14.890Z,-1.16
2023-01-19T04:24:43.145Z,-1.20
2023-01-19T04:27:12.038Z,-1.20
2023-01-19T04:29:42.588Z,-1.21
2023-01-19T04:32:10.950Z,-1.21
2023-01-19T04:34:40.789Z,-1.22
2023-01-19T04:37:10.740Z,-1.29
2023-01-19T04:39:38.959Z,-1.32
2023-01-19T04:42:07.918Z,-1.40
2023-01-19T04:44:36.509Z,-1.42
2023-01-19T04:47:04.842Z,-1.52
2023-01-19T04:49:33.299Z,-1.56
2023-01-19T04:52:02.085Z,-1.61
2023-01-19T04:54:32.164Z,-1.67
2023-01-19T04:57:00.450Z,-1.67
2023-01-19T04:59:28.583Z,-1.67
2023-01-19T05:01:57.117Z,-1.68
2023-01-19T05:04:25.792Z,-1.63
2023-01-19T05:06:54.200Z,-1.64
2023-01-19T05:09:23.263Z,-1.58
2023-01-19T05:11:52.777Z,-1.52
2023-01-19T05:14:21.475Z,-1.63
2023-01-19T05:16:49.841Z,-1.61
2023-01-19T05:19:18.177Z,-1.68
2023-01-19T05:21:47.057Z,-1.68
2023-01-19T05:24:15.529Z,-1.71
2023-01-19T05:26:44.047Z,-1.70
2023-01-19T05:29:14.050Z,-1.67
2023-01-19T05:31:42.589Z,-1.63
2023-01-19T05:34:12.295Z,-1.56
2023-01-19T05:36:41.421Z,-1.58
2023-01-19T05:39:09.894Z,-1.65
2023-01-19T05:41:38.685Z,-1.65
2023-01-19T05:44:06.966Z,-1.75
2023-01-19T05:46:38.574Z,-1.80
2023-01-19T05:49:09.366Z,-1.88
2023-01-19T05:51:38.996Z,-1.91
2023-01-19T05:54:08.855Z,-1.71
2023-01-19T05:56:37.123Z,-1.79
2023-01-19T05:59:07.044Z,-1.77
2023-01-19T06:01:42.052Z,-1.74
2023-01-19T06:04:10.939Z,-1.80
2023-01-19T06:06:39.661Z,-1.84
2023-01-19T06:09:08.369Z,-1.87
2023-01-19T06:11:37.630Z,-1.84
2023-01-19T06:14:06.136Z,-1.88
2023-01-19T06:16:34.551Z,-1.78
2023-01-19T06:19:04.721Z,-1.78
2023-01-19T06:21:32.981Z,-1.70
2023-01-19T06:24:01.543Z,-1.64
2023-01-19T06:26:30.282Z,-1.60
2023-01-19T06:28:59.037Z,-1.43
2023-01-19T06:31:27.650Z,-1.45
2023-01-19T06:33:59.093Z,-1.39
2023-01-19T06:36:31.367Z,-1.35
2023-01-19T06:39:00.443Z,-1.32
2023-01-19T06:41:29.682Z,-1.25
2023-01-19T06:43:58.118Z,-1.25
2023-01-19T06:46:26.330Z,-1.25
2023-01-19T06:48:55.151Z,-1.19
2023-01-19T06:51:23.976Z,-1.16
2023-01-19T06:53:53.760Z,-1.17
2023-01-19T06:56:21.955Z,-1.10
2023-01-19T06:58:53.431Z,-1.13
2023-01-19T07:01:21.937Z,-1.10
2023-01-19T07:03:50.152Z,-1.07
2023-01-19T07:06:18.668Z,-1.03
2023-01-19T07:08:49.518Z,-1.04
2023-01-19T07:11:25.463Z,-0.98
2023-01-19T07:14:01.241Z,-0.99
2023-01-19T07:16:29.804Z,-0.99
2023-01-19T07:18:58.048Z,-0.94
2023-01-19T07:21:28.938Z,-1.01
2023-01-19T07:23:57.781Z,-0.94
2023-01-19T07:26:28.158Z,-0.90
2023-01-19T07:28:56.300Z,-0.90
2023-01-19T07:31:25.951Z,-0.81
2023-01-19T07:33:54.073Z,-0.83
2023-01-19T07:36:22.248Z,-0.87
2023-01-19T07:38:50.577Z,-0.77
2023-01-19T07:41:18.783Z,-0.78
2023-01-19T07:43:51.246Z,-0.85
2023-01-19T07:46:19.619Z,-0.84
2023-01-19T07:48:48.377Z,-0.83
2023-01-19T07:51:18.780Z,-0.85
2023-01-19T07:53:47.767Z,-0.89
2023-01-19T07:56:16.056Z,-0.87
2023-01-19T07:58:44.572Z,-0.85
2023-01-19T08:01:14.767Z,-0.83
2023-01-19T08:03:43.508Z,-0.80
2023-01-19T08:06:20.519Z,-0.76
2023-01-19T08:08:48.936Z,-0.80
2023-01-19T08:11:18.412Z,-0.83
2023-01-19T08:13:46.919Z,-0.69
2023-01-19T08:16:16.717Z,-0.67
2023-01-19T08:18:45.132Z,-0.60
2023-01-19T08:21:13.576Z,-0.56
2023-01-19T08:23:42.362Z,-0.56
2023-01-19T08:26:21.324Z,-0.54
2023-01-19T08:28:49.772Z,-0.45
2023-01-19T08:31:22.468Z,-0.38
2023-01-19T08:33:52.920Z,-0.35
2023-01-19T08:36:22.632Z,-0.29
2023-01-19T08:38:51.040Z,-0.26
2023-01-19T08:41:19.688Z,-0.24
2023-01-19T08:43:48.333Z,-0.23
2023-01-19T08:46:17.584Z,-0.17
2023-01-19T08:48:48.668Z,-0.19
2023-01-19T08:51:17.289Z,-0.22
2023-01-19T08:53:45.525Z,-0.17
2023-01-19T08:56:14.709Z,-0.13
2023-01-19T08:58:44.259Z,-0.14
2023-01-19T09:01:14.864Z,-0.09
2023-01-19T09:03:44.255Z,-0.07
2023-01-19T09:06:17.321Z,-0.08
2023-01-19T09:08:46.081Z,-0.05
2023-01-19T09:11:17.145Z,-0.01
2023-01-19T09:13:45.820Z,0.12
2023-01-19T09:16:15.803Z,0.17
2023-01-19T09:18:46.166Z,0.11
2023-01-19T09:21:16.358Z,0.14
2023-01-19T09:23:44.631Z,-0.05
2023-01-19T09:26:12.767Z,-0.08
2023-01-19T09:28:41.170Z,-0.14
2023-01-19T09:31:10.121Z,-0.24
2023-01-19T09:33:38.480Z,-0.26
2023-01-19T09:36:07.687Z,-0.11
2023-01-19T09:38:38.456Z,0.06
2023-01-19T09:41:19.316Z,0.11
2023-01-19T09:43:52.516Z,0.18
2023-01-19T09:46:25.808Z,0.33
2023-01-19T09:48:56.728Z,0.37
2023-01-19T09:51:27.159Z,0.42
2023-01-19T09:54:07.883Z,0.43
2023-01-19T09:56:37.598Z,0.56
2023-01-19T09:59:18.953Z,0.55
2023-01-19T10:01:58.646Z,0.66
2023-01-19T10:04:35.041Z,0.74
2023-01-19T10:07:25.103Z,0.76
2023-01-19T10:10:19.859Z,0.86
2023-01-19T10:13:03.944Z,0.97
2023-01-19T10:15:46.913Z,1.06
2023-01-19T10:18:20.180Z,1.36
2023-01-19T10:20:52.014Z,1.51
2023-01-19T10:23:35.826Z,1.64
2023-01-19T10:26:10.520Z,1.82
2023-01-19T10:28:40.751Z,2.01
2023-01-19T10:31:10.237Z,2.17
2023-01-19T10:33:42.218Z,2.13
2023-01-19T10:36:19.593Z,2.06
2023-01-19T10:38:49.714Z,1.90
2023-01-19T10:41:25.972Z,1.84
2023-01-19T10:44:01.458Z,1.63
2023-01-19T10:46:38.471Z,1.51
2023-01-19T10:49:07.666Z,1.39
2023-01-19T10:51:48.231Z,1.56
2023-01-19T10:54:17.810Z,1.66
2023-01-19T10:56:52.565Z,1.64
2023-01-19T10:59:34.166Z,1.63
2023-01-19T11:02:18.559Z,1.74
2023-01-19T11:04:50.242Z,1.67
2023-01-19T11:07:22.145Z,1.69
2023-01-19T11:09:51.385Z,1.77
2023-01-19T11:12:24.141Z,1.71
2023-01-19T11:14:53.743Z,1.64
2023-01-19T11:17:25.790Z,1.79
2023-01-19T11:19:58.372Z,1.71
2023-01-19T11:22:29.460Z,1.70
2023-01-19T11:25:02.800Z,1.69
2023-01-19T11:27:35.719Z,1.61
2023-01-19T11:30:10.775Z,1.68
2023-01-19T11:32:39.833Z,1.80
2023-01-19T11:35:34.372Z,2.06
2023-01-19T11:38:19.144Z,1.83
2023-01-19T11:40:54.841Z,1.76
2023-01-19T11:43:36.660Z,1.83
2023-01-19T11:46:17.410Z,1.56
2023-01-19T11:48:48.269Z,1.57
2023-01-19T11:51:20.835Z,1.61
2023-01-19T11:53:53.289Z,1.62
2023-01-19T11:56:24.997Z,1.56
2023-01-19T11:58:54.948Z,1.50
2023-01-19T12:01:26.542Z,1.56
2023-01-19T12:04:01.183Z,1.56
2023-01-19T12:06:34.028Z,1.44
2023-01-19T12:09:06.555Z,1.44
2023-01-19T12:11:39.811Z,1.45
2023-01-19T12:14:19.925Z,1.41
2023-01-19T12:16:49.059Z,1.33
2023-01-19T12:19:20.182Z,1.32
2023-01-19T12:21:49.173Z,1.33
2023-01-19T12:24:28.670Z,1.27
2023-01-19T12:26:58.755Z,1.32
2023-01-19T12:29:31.549Z,1.34
2023-01-19T12:32:20.362Z,1.40
2023-01-19T12:34:50.114Z,1.39
2023-01-19T12:37:38.841Z,1.38
2023-01-19T12:40:27.434Z,1.34
2023-01-19T12:43:01.911Z,1.35
2023-01-19T12:45:35.396Z,1.39
2023-01-19T12:48:08.846Z,1.42
2023-01-19T12:50:39.266Z,1.38
2023-01-19T12:53:18.027Z,1.42
2023-01-19T12:55:48.475Z,1.46
2023-01-19T12:58:19.640Z,1.36
2023-01-19T13:00:50.472Z,1.36
2023-01-19T13:03:46.658Z,1.26
2023-01-19T13:06:15.222Z,1.37
2023-01-19T13:09:01.020Z,1.27
2023-01-19T13:11:34.294Z,1.28
2023-01-19T13:14:35.145Z,1.15
2023-01-19T13:17:22.794Z,1.05
2023-01-19T13:20:06.518Z,0.99
2023-01-19T13:23:19.904Z,1.06
2023-01-19T13:26:02.393Z,1.05
2023-01-19T13:28:38.876Z,1.13
2023-01-19T13:31:10.108Z,1.26
2023-01-19T13:33:49.291Z,1.31
2023-01-19T13:36:31.960Z,1.40
2023-01-19T13:39:04.226Z,1.37
2023-01-19T13:41:37.221Z,1.35
2023-01-19T13:44:10.934Z,1.56
2023-01-19T13:46:40.621Z,1.58
2023-01-19T13:49:18.381Z,1.68
2023-01-19T13:51:48.886Z,1.64
2023-01-19T13:54:18.009Z,1.61
2023-01-19T13:56:50.308Z,1.75
2023-01-19T13:59:18.605Z,1.87
2023-01-19T14:01:48.063Z,1.94
2023-01-19T14:04:30.860Z,1.77
2023-01-19T14:07:03.451Z,1.74
2023-01-19T14:09:32.125Z,1.75
2023-01-19T14:12:12.358Z,1.82
2023-01-19T14:14:41.497Z,1.75
2023-01-19T14:17:32.150Z,1.71
2023-01-19T14:20:02.043Z,1.59
2023-01-19T14:22:41.848Z,1.67
2023-01-19T14:25:22.918Z,1.55
2023-01-19T14:27:51.271Z,1.65
2023-01-19T14:30:25.167Z,1.67
2023-01-19T14:32:54.334Z,1.67
2023-01-19T14:35:26.193Z,1.67
2023-01-19T14:37:54.872Z,1.63
2023-01-19T14:40:24.466Z,1.66
2023-01-19T14:42:57.421Z,1.71
2023-01-19T14:45:29.703Z,1.73
2023-01-19T14:48:00.829Z,1.69
2023-01-19T14:50:38.737Z,1.62
2023-01-19T14:53:15.921Z,1.50
2023-01-19T14:55:48.015Z,1.58
2023-01-19T14:58:19.011Z,1.60
2023-01-19T15:00:49.361Z,1.51
2023-01-19T15:03:18.026Z,1.44
2023-01-19T15:05:52.815Z,1.40
2023-01-19T15:08:26.340Z,1.36
2023-01-19T15:10:56.214Z,1.36
2023-01-19T15:13:27.856Z,1.37
2023-01-19T15:15:57.953Z,1.36
2023-01-19T15:18:27.908Z,1.29
2023-01-19T15:21:02.733Z,1.29
2023-01-19T15:23:34.861Z,1.23
2023-01-19T15:26:05.429Z,1.24
2023-01-19T15:28:34.647Z,1.27
2023-01-19T15:31:03.230Z,1.13
2023-01-19T15:33:32.421Z,1.09
2023-01-19T15:36:03.117Z,1.08
2023-01-19T15:38:31.741Z,1.11
2023-01-19T15:41:00.121Z,1.06
2023-01-19T15:43:30.401Z,1.00
2023-01-19T15:46:03.512Z,0.96
2023-01-19T15:48:31.776Z,0.88
2023-01-19T15:51:04.664Z,0.83
2023-01-19T15:53:34.658Z,0.82
2023-01-19T15:56:03.660Z,0.66
2023-01-19T15:58:33.332Z,0.60
2023-01-19T16:01:01.585Z,0.48
2023-01-19T16:03:30.013Z,0.42
2023-01-19T16:06:01.860Z,0.37
2023-01-19T16:08:31.753Z,0.30
2023-01-19T16:11:05.043Z,0.26
2023-01-19T16:13:33.377Z,0.22
2023-01-19T16:16:05.008Z,0.21
2023-01-19T16:18:33.493Z,0.14
2023-01-19T16:21:01.887Z,0.14
2023-01-19T16:23:31.787Z,0.09
2023-01-19T16:26:04.884Z,0.04
2023-01-19T16:28:33.780Z,0.15
2023-01-19T16:31:03.647Z,0.05
2023-01-19T16:33:32.164Z,0.11
2023-01-19T16:36:00.333Z,0.00
2023-01-19T16:38:28.933Z,-0.02
2023-01-19T16:40:58.956Z,-0.02
2023-01-19T16:43:28.974Z,-0.03
2023-01-19T16:46:01.142Z,-0.03
2023-01-19T16:48:29.735Z,-0.06
2023-01-19T16:51:03.044Z,-0.08
2023-01-19T16:53:34.832Z,-0.08
2023-01-19T16:56:07.590Z,-0.05
2023-01-19T16:58:54.337Z,-0.04
2023-01-19T17:01:25.454Z,-0.06
2023-01-19T17:03:55.857Z,-0.03
2023-01-19T17:06:25.190Z,-0.05
2023-01-19T17:08:53.736Z,-0.03
2023-01-19T17:11:26.075Z,-0.02
2023-01-19T17:13:56.282Z,0.03
2023-01-19T17:16:26.391Z,-0.03
2023-01-19T17:18:55.205Z,0.01
2023-01-19T17:21:24.641Z,-0.02
2023-01-19T17:23:55.075Z,-0.02
2023-01-19T17:26:28.153Z,-0.04
2023-01-19T17:29:00.279Z,-0.01
2023-01-19T17:31:29.805Z,-0.03
2023-01-19T17:33:58.422Z,0.07
2023-01-19T17:36:29.203Z,0.04
2023-01-19T17:38:59.030Z,0.12
2023-01-19T17:41:31.557Z,0.08
2023-01-19T17:44:01.355Z,0.13
2023-01-19T17:46:30.468Z,0.04
2023-01-19T17:49:01.462Z,0.06
2023-01-19T17:51:34.337Z,0.06
2023-01-19T17:54:04.001Z,0.02
2023-01-19T17:56:37.503Z,0.01
2023-01-19T17:59:08.325Z,0.06
2023-01-19T18:01:40.120Z,0.01
2023-01-19T18:04:09.690Z,-0.03
2023-01-19T18:06:41.648Z,-0.07
2023-01-19T18:09:14.144Z,-0.05
2023-01-19T18:11:43.758Z,-0.01
2023-01-19T18:14:12.341Z,-0.03
2023-01-19T18:16:41.086Z,-0.03
2023-01-19T18:19:09.491Z,0.03
2023-01-19T18:21:38.296Z,-0.03
2023-01-19T18:24:08.000Z,0.01
2023-01-19T18:26:37.559Z,0.02
2023-01-19T18:29:06.922Z,-0.03
2023-01-19T18:31:35.570Z,0.03
2023-01-19T18:34:04.676Z,0.04
2023-01-19T18:36:34.180Z,-0.02
2023-01-19T18:39:05.030Z,-0.03
2023-01-19T18:41:40.349Z,-0.02
2023-01-19T18:44:10.483Z,-0.04
2023-01-19T18:46:39.517Z,-0.02
2023-01-19T18:49:07.790Z,-0.04
2023-01-19T18:51:36.626Z,-0.03
2023-01-19T18:54:05.002Z,-0.03
2023-01-19T18:56:33.237Z,-0.04
2023-01-19T18:59:03.567Z,-0.11
2023-01-19T19:01:36.559Z,-0.10
2023-01-19T19:04:05.234Z,-0.06
2023-01-19T19:06:34.189Z,-0.10
2023-01-19T19:09:03.425Z,-0.14
2023-01-19T19:11:32.060Z,-0.09
2023-01-19T19:14:02.299Z,-0.13
2023-01-19T19:16:36.167Z,-0.09
2023-01-19T19:19:08.764Z,-0.18
2023-01-19T19:21:37.113Z,-0.19
2023-01-19T19:24:06.556Z,-0.19
2023-01-19T19:26:35.577Z,-0.23
2023-01-19T19:29:04.871Z,-0.24
2023-01-19T19:31:34.733Z,-0.26
2023-01-19T19:34:03.166Z,-0.19
2023-01-19T19:36:33.438Z,-0.26
2023-01-19T19:39:02.505Z,-0.31
2023-01-19T19:41:32.273Z,-0.20
2023-01-19T19:44:01.273Z,-0.24
2023-01-19T19:46:30.229Z,-0.28
2023-01-19T19:49:00.145Z,-0.30
2023-01-19T19:51:28.744Z,-0.30
2023-01-19T19:53:58.726Z,-0.30
2023-01-19T19:56:32.416Z,-0.27
2023-01-19T19:59:01.481Z,-0.30
2023-01-19T20:01:33.563Z,-0.30
2023-01-19T20:04:10.079Z,-0.30
2023-01-19T20:06:44.406Z,-0.31
2023-01-19T20:09:14.350Z,-0.33
2023-01-19T20:11:44.116Z,-0.34
2023-01-19T20:14:16.093Z,-0.28
2023-01-19T20:16:45.350Z,-0.32
2023-01-19T20:19:16.095Z,-0.27
2023-01-19T20:21:45.463Z,-0.29
2023-01-19T20:24:16.367Z,-0.27
2023-01-19T20:26:47.409Z,-0.28
2023-01-19T20:29:16.483Z,-0.32
2023-01-19T20:31:48.606Z,-0.32
2023-01-19T20:34:21.383Z,-0.36
2023-01-19T20:36:53.235Z,-0.38
2023-01-19T20:39:23.568Z,-0.41
2023-01-19T20:41:52.734Z,-0.40
2023-01-19T20:44:23.164Z,-0.41
2023-01-19T20:46:51.981Z,-0.43
2023-01-19T20:49:22.801Z,-0.41
2023-01-19T20:51:52.026Z,-0.45
2023-01-19T20:54:24.382Z,-0.47
2023-01-19T20:56:52.672Z,-0.47
2023-01-19T20:59:21.655Z,-0.49
2023-01-19T21:01:53.744Z,-0.51
2023-01-19T21:04:23.855Z,-0.52
2023-01-19T21:06:52.561Z,-0.51
2023-01-19T21:09:22.700Z,-0.49
2023-01-19T21:11:51.411Z,-0.51
2023-01-19T21:14:19.685Z,-0.52
2023-01-19T21:16:50.487Z,-0.52
2023-01-19T21:19:18.910Z,-0.54
2023-01-19T21:21:48.578Z,-0.57
2023-01-19T21:24:17.791Z,-0.55
2023-01-19T21:26:45.914Z,-0.61
2023-01-19T21:29:14.613Z,-0.64
2023-01-19T21:31:43.321Z,-0.65
2023-01-19T21:34:11.818Z,-0.67
2023-01-19T21:36:40.066Z,-0.67
2023-01-19T21:39:10.603Z,-0.70
2023-01-19T21:41:42.275Z,-0.75
2023-01-19T21:44:13.820Z,-0.80
2023-01-19T21:46:43.756Z,-0.84
2023-01-19T21:49:16.897Z,-0.87
2023-01-19T21:51:47.965Z,-0.88
2023-01-19T21:54:18.521Z,-0.87
2023-01-19T21:56:53.881Z,-0.87
2023-01-19T21:59:22.255Z,-0.88
2023-01-19T22:01:51.612Z,-0.90
2023-01-19T22:04:22.172Z,-0.88
2023-01-19T22:06:50.825Z,-0.83
2023-01-19T22:09:22.147Z,-0.86
2023-01-19T22:11:53.340Z,-0.83
2023-01-19T22:14:21.687Z,-0.88
2023-01-19T22:16:51.228Z,-0.90
2023-01-19T22:19:20.609Z,-0.92
2023-01-19T22:21:48.964Z,-0.92
2023-01-19T22:24:17.467Z,-0.92
2023-01-19T22:26:48.445Z,-0.94
2023-01-19T22:29:17.042Z,-0.94
2023-01-19T22:31:46.096Z,-0.91
2023-01-19T22:34:17.064Z,-0.88
2023-01-19T22:36:45.758Z,-0.85
2023-01-19T22:39:16.904Z,-0.82
2023-01-19T22:41:47.774Z,-0.82
2023-01-19T22:44:22.535Z,-0.82
2023-01-19T22:46:54.069Z,-0.86
2023-01-19T22:49:25.308Z,-0.85
2023-01-19T22:51:58.112Z,-0.86
2023-01-19T22:54:32.740Z,-0.84
2023-01-19T22:57:04.304Z,-0.83
2023-01-19T22:59:39.528Z,-0.81
2023-01-19T23:02:18.067Z,-0.78
2023-01-19T23:04:50.394Z,-0.75
2023-01-19T23:07:20.418Z,-0.74
2023-01-19T23:09:48.665Z,-0.77
2023-01-19T23:12:27.257Z,-0.77
2023-01-19T23:15:00.906Z,-0.82
2023-01-19T23:17:32.055Z,-0.81
2023-01-19T23:20:02.365Z,-0.83
2023-01-19T23:22:33.036Z,-0.79
2023-01-19T23:25:01.740Z,-0.80
2023-01-19T23:27:35.225Z,-0.83
2023-01-19T23:30:06.626Z,-0.82
2023-01-19T23:32:40.598Z,-0.84
2023-01-19T23:35:13.057Z,-0.89
2023-01-19T23:37:42.464Z,-0.96
2023-01-19T23:40:12.012Z,-1.03
2023-01-19T23:42:43.400Z,-1.00
2023-01-19T23:45:12.607Z,-0.98
2023-01-19T23:47:47.406Z,-0.94
2023-01-19T23:50:15.704Z,-0.94
2023-01-19T23:52:43.768Z,-0.88
2023-01-19T23:55:19.145Z,-0.76
2023-01-19T23:57:49.178Z,-0.76
